Time,TemperatureF,DewpointF,PressureIn,WindDirection,WindDirectionDegrees,WindSpeedMPH,WindSpeedGustMPH,Humidity,HourlyPrecipIn,Conditions,Clouds,dailyrainin,SoftwareType,DateUTC
2013-01-30 00:02:00,63.5,56.9,29.40,SE,146,22.0,22.0,79,0.00,,SKC,0.00,VWS V14.01,2013-01-30 05:02:00,
2013-01-30 00:03:00,63.5,56.9,29.40,SSE,160,11.0,22.0,79,0.00,,SKC,0.00,VWS V14.01,2013-01-30 05:03:00,
2013-01-30 00:04:00,63.5,56.9,29.40,South,186,7.0,22.0,79,0.00,,SKC,0.00,VWS V14.01,2013-01-30 05:04:00,
2013-01-30 00:09:00,63.5,56.9,29.40,SSE,153,22.0,22.0,79,0.00,,SKC,0.00,VWS V14.01,2013-01-30 05:09:00,
2013-01-30 00:14:00,63.7,57.1,29.40,South,172,14.0,27.0,79,0.00,,SKC,0.00,VWS V14.01,2013-01-30 05:14:00,
2013-01-30 00:19:00,63.9,57.3,29.39,SW,220,7.0,27.0,79,0.00,,SKC,0.00,VWS V14.01,2013-01-30 05:19:00,
2013-01-30 00:24:00,64.0,57.4,29.39,SW,214,12.0,27.0,79,0.00,,SKC,0.00,VWS V14.01,2013-01-30 05:24:00,
2013-01-30 00:29:00,64.2,57.6,29.39,WSW,238,6.0,27.0,79,0.00,,SKC,0.00,VWS V14.01,2013-01-30 05:29:00,
2013-01-30 00:34:00,64.2,57.6,29.36,South,185,5.0,20.0,79,0.00,,SKC,0.00,VWS V14.01,2013-01-30 05:34:00,
2013-01-30 00:39:00,64.2,57.6,29.36,SSW,194,3.0,24.0,79,0.00,,SKC,0.00,VWS V14.01,2013-01-30 05:39:00,
2013-01-30 00:44:00,64.2,57.6,29.36,ESE,113,7.0,24.0,79,0.00,,SKC,0.00,VWS V14.01,2013-01-30 05:44:00,
2013-01-30 00:49:00,64.0,57.7,29.35,SE,127,21.0,24.0,80,0.00,,SKC,0.00,VWS V14.01,2013-01-30 05:49:00,
2013-01-30 00:54:00,64.0,57.7,29.35,SSE,155,14.0,24.0,80,0.00,,SKC,0.00,VWS V14.01,2013-01-30 05:54:00,
2013-01-30 01:00:00,64.0,58.1,29.33,SE,146,5.0,24.0,81,0.00,,SKC,0.00,VWS V14.01,2013-01-30 06:00:00,
2013-01-30 01:05:00,63.9,58.3,29.33,SSE,156,5.0,22.0,82,0.01,,SKC,0.01,VWS V14.01,2013-01-30 06:05:00,
2013-01-30 01:10:00,63.9,58.3,29.33,WSW,240,6.0,24.0,82,0.01,,SKC,0.01,VWS V14.01,2013-01-30 06:10:00,
2013-01-30 01:15:00,64.0,58.1,29.33,South,172,3.0,25.0,81,0.01,,SKC,0.01,VWS V14.01,2013-01-30 06:15:00,
2013-01-30 01:20:00,64.0,58.4,29.33,SE,137,4.0,25.0,82,0.01,,SKC,0.01,VWS V14.01,2013-01-30 06:20:00,
2013-01-30 01:25:00,64.3,58.3,29.33,ESE,117,10.0,28.0,81,0.01,,SKC,0.01,VWS V14.01,2013-01-30 06:25:00,
2013-01-30 01:30:00,64.8,58.5,29.34,SSE,162,9.0,28.0,80,0.01,,SKC,0.01,VWS V14.01,2013-01-30 06:30:00,
2013-01-30 01:35:00,64.7,56.6,29.34,West,270,13.0,30.0,75,0.01,,SKC,0.01,VWS V14.01,2013-01-30 06:35:00,
2013-01-30 01:40:00,62.4,55.8,29.34,NW,318,7.0,30.0,79,0.26,,SKC,0.26,VWS V14.01,2013-01-30 06:40:00,
2013-01-30 01:45:00,59.8,53.6,29.43,SW,229,4.0,30.0,80,0.30,,SKC,0.30,VWS V14.01,2013-01-30 06:45:00,
2013-01-30 01:50:00,58.0,52.5,29.43,West,274,9.0,30.0,82,0.32,,SKC,0.32,VWS V14.01,2013-01-30 06:50:00,
2013-01-30 01:55:00,56.5,51.4,29.43,WNW,295,4.0,30.0,83,0.34,,SKC,0.34,VWS V14.01,2013-01-30 06:55:00,
2013-01-30 02:00:00,55.4,51.3,29.46,WNW,282,7.0,30.0,86,0.39,,SKC,0.39,VWS V14.01,2013-01-30 07:00:00,
2013-01-30 02:05:00,54.7,50.9,29.46,SW,229,6.0,11.0,87,0.41,,SKC,0.41,VWS V14.01,2013-01-30 07:05:00,
2013-01-30 02:10:00,53.9,50.4,29.46,NW,317,6.0,17.0,88,0.47,,SKC,0.47,VWS V14.01,2013-01-30 07:10:00,
2013-01-30 02:15:00,53.5,50.3,29.46,NW,314,3.0,17.0,89,0.50,,SKC,0.50,VWS V14.01,2013-01-30 07:15:00,
2013-01-30 02:20:00,53.1,50.0,29.46,WNW,285,2.0,17.0,89,0.52,,SKC,0.52,VWS V14.01,2013-01-30 07:20:00,
2013-01-30 02:25:00,52.8,50.0,29.46,WNW,294,9.0,17.0,90,0.54,,SKC,0.54,VWS V14.01,2013-01-30 07:25:00,
2013-01-30 02:30:00,52.5,50.0,29.47,WNW,282,6.0,17.0,91,0.55,,SKC,0.55,VWS V14.01,2013-01-30 07:30:00,
2013-01-30 02:35:00,52.3,49.8,29.47,WSW,250,2.0,8.0,91,0.55,,SKC,0.56,VWS V14.01,2013-01-30 07:35:00,
2013-01-30 02:40:00,52.2,49.7,29.47,WSW,256,5.0,10.0,91,0.56,,SKC,0.57,VWS V14.01,2013-01-30 07:40:00,
2013-01-30 02:45:00,52.0,49.5,29.45,WNW,296,2.0,11.0,91,0.57,,SKC,0.58,VWS V14.01,2013-01-30 07:45:00,
2013-01-30 02:51:00,51.9,49.7,29.45,WNW,298,4.0,11.0,92,0.57,,SKC,0.58,VWS V14.01,2013-01-30 07:51:00,
2013-01-30 02:56:00,51.7,49.5,29.45,WNW,288,0.0,11.0,92,0.57,,SKC,0.58,VWS V14.01,2013-01-30 07:56:00,
2013-01-30 03:01:00,51.6,49.4,29.44,WNW,300,0.0,0.0,92,0.19,,SKC,0.58,VWS V14.01,2013-01-30 08:01:00,
2013-01-30 03:06:00,51.6,49.4,29.44,WNW,289,0.0,4.0,92,0.20,,SKC,0.59,VWS V14.01,2013-01-30 08:06:00,
2013-01-30 03:11:00,51.4,49.2,29.44,WNW,297,0.0,4.0,92,0.20,,SKC,0.59,VWS V14.01,2013-01-30 08:11:00,
2013-01-30 03:16:00,51.4,49.2,29.46,NNW,335,1.0,4.0,92,0.20,,SKC,0.59,VWS V14.01,2013-01-30 08:16:00,
2013-01-30 03:21:00,51.4,49.5,29.46,WNW,298,2.0,6.0,93,0.21,,SKC,0.60,VWS V14.01,2013-01-30 08:21:00,
2013-01-30 03:26:00,51.3,49.3,29.46,WNW,298,2.0,6.0,93,0.21,,SKC,0.60,VWS V14.01,2013-01-30 08:26:00,
2013-01-30 03:31:00,51.3,49.3,29.44,WNW,291,0.0,0.0,93,0.06,,SKC,0.61,VWS V14.01,2013-01-30 08:31:00,
2013-01-30 03:36:00,51.1,49.2,29.44,WNW,291,0.0,1.0,93,0.06,,SKC,0.61,VWS V14.01,2013-01-30 08:36:00,
2013-01-30 03:41:00,51.1,49.2,29.44,SSE,150,0.0,2.0,93,0.08,,SKC,0.63,VWS V14.01,2013-01-30 08:41:00,
2013-01-30 03:46:00,51.1,49.2,29.44,SSE,150,0.0,2.0,93,0.08,,SKC,0.63,VWS V14.01,2013-01-30 08:46:00,
2013-01-30 03:51:00,51.0,49.3,29.44,SSE,150,0.0,2.0,94,0.08,,SKC,0.63,VWS V14.01,2013-01-30 08:51:00,
2013-01-30 03:56:00,51.0,49.3,29.44,SSE,150,0.0,2.0,94,0.08,,SKC,0.63,VWS V14.01,2013-01-30 08:56:00,
2013-01-30 04:01:00,51.0,49.3,29.43,SSE,150,0.0,0.0,94,0.06,,SKC,0.64,VWS V14.01,2013-01-30 09:01:00,
2013-01-30 04:06:00,51.0,49.3,29.43,SSE,150,0.0,1.0,94,0.07,,SKC,0.65,VWS V14.01,2013-01-30 09:06:00,
2013-01-30 04:11:00,50.8,49.1,29.43,SSE,150,0.0,1.0,94,0.07,,SKC,0.65,VWS V14.01,2013-01-30 09:11:00,
2013-01-30 04:16:00,50.8,49.1,29.44,SSE,150,1.0,2.0,94,0.08,,SKC,0.66,VWS V14.01,2013-01-30 09:16:00,
2013-01-30 04:21:00,50.8,49.1,29.44,West,278,1.0,3.0,94,0.09,,SKC,0.67,VWS V14.01,2013-01-30 09:21:00,
2013-01-30 04:26:00,50.8,49.1,29.44,West,278,0.0,3.0,94,0.09,,SKC,0.67,VWS V14.01,2013-01-30 09:26:00,
2013-01-30 04:31:00,50.8,49.1,29.46,West,278,0.0,3.0,94,0.07,,SKC,0.68,VWS V14.01,2013-01-30 09:31:00,
2013-01-30 04:36:00,50.7,49.0,29.46,West,278,0.0,3.0,94,0.07,,SKC,0.68,VWS V14.01,2013-01-30 09:36:00,
2013-01-30 04:42:00,50.5,49.1,29.46,West,278,0.0,3.0,95,0.07,,SKC,0.68,VWS V14.01,2013-01-30 09:42:00,
2013-01-30 04:47:00,50.5,49.1,29.44,West,278,0.0,3.0,95,0.07,,SKC,0.68,VWS V14.01,2013-01-30 09:47:00,
2013-01-30 04:52:00,50.4,49.0,29.44,West,278,0.0,3.0,95,0.07,,SKC,0.68,VWS V14.01,2013-01-30 09:52:00,
2013-01-30 04:57:00,50.4,49.0,29.44,SSW,193,0.0,3.0,95,0.08,,SKC,0.69,VWS V14.01,2013-01-30 09:57:00,
2013-01-30 05:02:00,50.2,48.8,29.44,SSW,193,0.0,0.0,95,0.06,,SKC,0.70,VWS V14.01,2013-01-30 10:02:00,
2013-01-30 05:07:00,50.2,48.8,29.44,SSW,193,0.0,0.0,95,0.06,,SKC,0.70,VWS V14.01,2013-01-30 10:07:00,
2013-01-30 05:12:00,50.2,48.8,29.44,SSW,193,0.0,0.0,95,0.07,,SKC,0.71,VWS V14.01,2013-01-30 10:12:00,
2013-01-30 05:17:00,50.2,48.8,29.44,SSW,193,2.0,2.0,95,0.09,,SKC,0.73,VWS V14.01,2013-01-30 10:17:00,
2013-01-30 05:22:00,50.2,48.8,29.44,SE,139,1.0,3.0,95,0.10,,SKC,0.74,VWS V14.01,2013-01-30 10:22:00,
2013-01-30 05:27:00,50.4,49.0,29.44,ESE,118,0.0,4.0,95,0.11,,SKC,0.75,VWS V14.01,2013-01-30 10:27:00,
2013-01-30 05:33:00,50.4,49.0,29.42,ESE,121,5.0,5.0,95,0.08,,SKC,0.76,VWS V14.01,2013-01-30 10:33:00,
2013-01-30 05:38:00,50.4,49.3,29.42,ESE,110,0.0,6.0,96,0.08,,SKC,0.76,VWS V14.01,2013-01-30 10:38:00,
2013-01-30 05:43:00,50.2,49.1,29.42,ESE,121,4.0,6.0,96,0.08,,SKC,0.76,VWS V14.01,2013-01-30 10:43:00,
2013-01-30 05:48:00,50.4,49.3,29.42,ESE,119,3.0,6.0,96,0.08,,SKC,0.76,VWS V14.01,2013-01-30 10:48:00,
2013-01-30 05:53:00,50.2,49.1,29.42,ESE,112,3.0,6.0,96,0.08,,SKC,0.76,VWS V14.01,2013-01-30 10:53:00,
2013-01-30 05:58:00,50.2,49.1,29.42,ESE,121,6.0,6.0,96,0.08,,SKC,0.76,VWS V14.01,2013-01-30 10:58:00,
2013-01-30 06:03:00,50.2,49.1,29.40,ESE,112,0.0,5.0,96,0.07,,SKC,0.76,VWS V14.01,2013-01-30 11:03:00,
2013-01-30 06:08:00,50.1,49.0,29.40,ESE,103,1.0,5.0,96,0.07,,SKC,0.76,VWS V14.01,2013-01-30 11:08:00,
2013-01-30 06:13:00,50.1,49.0,29.40,ESE,115,5.0,5.0,96,0.08,,SKC,0.77,VWS V14.01,2013-01-30 11:13:00,
2013-01-30 06:18:00,50.1,49.0,29.39,ESE,110,3.0,6.0,96,0.08,,SKC,0.77,VWS V14.01,2013-01-30 11:18:00,
2013-01-30 06:23:00,49.9,48.8,29.39,ESE,115,1.0,6.0,96,0.08,,SKC,0.77,VWS V14.01,2013-01-30 11:23:00,
2013-01-30 06:28:00,49.9,48.8,29.39,East,97,4.0,10.0,96,0.08,,SKC,0.77,VWS V14.01,2013-01-30 11:28:00,
2013-01-30 06:33:00,49.8,48.7,29.34,East,95,2.0,9.0,96,0.02,,SKC,0.77,VWS V14.01,2013-01-30 11:33:00,
2013-01-30 06:38:00,49.8,48.7,29.34,SE,127,4.0,9.0,96,0.02,,SKC,0.77,VWS V14.01,2013-01-30 11:38:00,
2013-01-30 06:43:00,49.8,48.7,29.34,ESE,109,2.0,9.0,96,0.02,,SKC,0.77,VWS V14.01,2013-01-30 11:43:00,
2013-01-30 06:49:00,49.8,48.7,29.36,SE,128,0.0,9.0,96,0.02,,SKC,0.77,VWS V14.01,2013-01-30 11:49:00,
2013-01-30 06:54:00,49.8,48.7,29.36,SE,143,8.0,11.0,96,0.02,,SKC,0.77,VWS V14.01,2013-01-30 11:54:00,
2013-01-30 06:59:00,49.8,48.7,29.36,ESE,117,2.0,11.0,96,0.02,,SKC,0.77,VWS V14.01,2013-01-30 11:59:00,
2013-01-30 07:04:00,49.8,48.7,29.38,SE,140,3.0,10.0,96,0.01,,SKC,0.77,VWS V14.01,2013-01-30 12:04:00,
2013-01-30 07:09:00,49.8,48.7,29.38,SE,128,3.0,10.0,96,0.01,,SKC,0.77,VWS V14.01,2013-01-30 12:09:00,
2013-01-30 07:14:00,49.8,48.7,29.38,SE,126,6.0,10.0,96,0.01,,SKC,0.77,VWS V14.01,2013-01-30 12:14:00,
2013-01-30 07:19:00,49.8,48.7,29.38,SE,143,2.0,11.0,96,0.01,,SKC,0.77,VWS V14.01,2013-01-30 12:19:00,
2013-01-30 07:24:00,49.8,48.7,29.38,SE,134,6.0,11.0,96,0.01,,SKC,0.77,VWS V14.01,2013-01-30 12:24:00,
2013-01-30 07:29:00,49.8,49.0,29.38,SE,129,5.0,14.0,97,0.01,,SKC,0.77,VWS V14.01,2013-01-30 12:29:00,
2013-01-30 07:34:00,49.6,48.8,29.34,SE,139,11.0,12.0,97,0.00,,SKC,0.77,VWS V14.01,2013-01-30 12:34:00,
2013-01-30 07:39:00,49.6,48.8,29.34,SE,125,6.0,12.0,97,0.00,,SKC,0.77,VWS V14.01,2013-01-30 12:39:00,
2013-01-30 07:44:00,49.6,48.8,29.34,SE,134,5.0,12.0,97,0.00,,SKC,0.77,VWS V14.01,2013-01-30 12:44:00,
2013-01-30 07:49:00,49.6,48.8,29.33,ESE,108,9.0,12.0,97,0.00,,SKC,0.77,VWS V14.01,2013-01-30 12:49:00,
2013-01-30 07:54:00,49.6,48.8,29.33,ESE,120,5.0,12.0,97,0.00,,SKC,0.77,VWS V14.01,2013-01-30 12:54:00,
2013-01-30 07:59:00,49.6,48.8,29.33,ESE,120,3.0,12.0,97,0.00,,SKC,0.77,VWS V14.01,2013-01-30 12:59:00,
2013-01-30 08:04:00,49.6,48.8,29.33,ESE,105,9.0,11.0,97,0.00,,SKC,0.77,VWS V14.01,2013-01-30 13:04:00,
2013-01-30 08:09:00,49.6,48.8,29.33,ESE,123,2.0,12.0,97,0.00,,SKC,0.77,VWS V14.01,2013-01-30 13:09:00,
2013-01-30 08:14:00,49.6,48.8,29.33,SE,124,5.0,12.0,97,0.00,,SKC,0.77,VWS V14.01,2013-01-30 13:14:00,
2013-01-30 08:19:00,49.6,48.8,29.34,SSW,202,3.0,13.0,97,0.00,,SKC,0.77,VWS V14.01,2013-01-30 13:19:00,
2013-01-30 08:25:00,49.6,48.8,29.34,ESE,111,6.0,13.0,97,0.00,,SKC,0.77,VWS V14.01,2013-01-30 13:25:00,
2013-01-30 08:30:00,49.6,48.8,29.34,SE,140,5.0,16.0,97,0.00,,SKC,0.77,VWS V14.01,2013-01-30 13:30:00,
2013-01-30 08:35:00,49.8,49.0,29.34,South,176,1.0,11.0,97,0.00,,SKC,0.77,VWS V14.01,2013-01-30 13:35:00,
2013-01-30 08:40:00,49.8,49.0,29.34,SE,133,4.0,13.0,97,0.00,,SKC,0.77,VWS V14.01,2013-01-30 13:40:00,
2013-01-30 08:45:00,49.8,49.0,29.35,SE,124,9.0,13.0,97,0.00,,SKC,0.77,VWS V14.01,2013-01-30 13:45:00,
2013-01-30 08:50:00,49.8,49.0,29.35,South,183,12.0,13.0,97,0.00,,SKC,0.77,VWS V14.01,2013-01-30 13:50:00,
2013-01-30 08:55:00,49.8,49.0,29.35,SSE,155,0.0,13.0,97,0.00,,SKC,0.77,VWS V14.01,2013-01-30 13:55:00,
2013-01-30 09:00:00,49.9,49.1,29.38,South,186,0.0,13.0,97,0.00,,SKC,0.77,VWS V14.01,2013-01-30 14:00:00,
2013-01-30 09:05:00,49.9,49.1,29.38,SW,221,3.0,6.0,97,0.00,,SKC,0.77,VWS V14.01,2013-01-30 14:05:00,
2013-01-30 09:10:00,50.1,49.3,29.38,SW,221,2.0,6.0,97,0.00,,SKC,0.77,VWS V14.01,2013-01-30 14:10:00,
2013-01-30 09:15:00,50.2,49.4,29.38,SSE,158,0.0,6.0,97,0.00,,SKC,0.77,VWS V14.01,2013-01-30 14:15:00,
2013-01-30 09:20:00,50.2,49.4,29.38,SSW,201,0.0,6.0,97,0.00,,SKC,0.77,VWS V14.01,2013-01-30 14:20:00,
2013-01-30 09:25:00,50.2,49.4,29.38,South,181,1.0,6.0,97,0.00,,SKC,0.77,VWS V14.01,2013-01-30 14:25:00,
2013-01-30 09:30:00,50.4,49.6,29.38,South,186,7.0,7.0,97,0.00,,SKC,0.77,VWS V14.01,2013-01-30 14:30:00,
2013-01-30 09:35:00,50.4,49.6,29.38,SSE,158,3.0,9.0,97,0.00,,SKC,0.77,VWS V14.01,2013-01-30 14:35:00,
2013-01-30 09:40:00,50.4,49.6,29.38,SSE,147,6.0,9.0,97,0.00,,SKC,0.77,VWS V14.01,2013-01-30 14:40:00,
2013-01-30 09:45:00,50.5,49.7,29.37,SSE,154,4.0,9.0,97,0.00,,SKC,0.77,VWS V14.01,2013-01-30 14:45:00,
2013-01-30 09:50:00,50.5,49.7,29.37,SSE,165,6.0,9.0,97,0.00,,SKC,0.77,VWS V14.01,2013-01-30 14:50:00,
2013-01-30 09:55:00,50.5,49.7,29.37,WSW,243,8.0,10.0,97,0.00,,SKC,0.77,VWS V14.01,2013-01-30 14:55:00,
2013-01-30 10:00:00,50.7,49.9,29.38,SE,139,1.0,10.0,97,0.00,,SKC,0.77,VWS V14.01,2013-01-30 15:00:00,
2013-01-30 10:05:00,50.8,50.0,29.38,SSE,158,1.0,3.0,97,0.00,,SKC,0.77,VWS V14.01,2013-01-30 15:05:00,
2013-01-30 10:11:00,50.8,50.0,29.38,South,169,2.0,7.0,97,0.00,,SKC,0.77,VWS V14.01,2013-01-30 15:11:00,
2013-01-30 10:16:00,51.0,50.2,29.38,South,169,3.0,13.0,97,0.00,,SKC,0.77,VWS V14.01,2013-01-30 15:16:00,
2013-01-30 10:21:00,51.0,50.2,29.38,SSW,210,2.0,13.0,97,0.00,,SKC,0.77,VWS V14.01,2013-01-30 15:21:00,
2013-01-30 10:26:00,51.1,50.3,29.38,SE,145,5.0,13.0,97,0.00,,SKC,0.77,VWS V14.01,2013-01-30 15:26:00,
2013-01-30 10:31:00,51.1,50.3,29.34,SSE,160,1.0,2.0,97,0.00,,SKC,0.77,VWS V14.01,2013-01-30 15:31:00,
2013-01-30 10:36:00,51.3,50.5,29.34,South,182,5.0,6.0,97,0.00,,SKC,0.77,VWS V14.01,2013-01-30 15:36:00,
2013-01-30 10:41:00,51.3,50.5,29.34,South,176,6.0,14.0,97,0.00,,SKC,0.77,VWS V14.01,2013-01-30 15:41:00,
2013-01-30 10:46:00,51.3,50.5,29.35,South,179,3.0,14.0,97,0.00,,SKC,0.77,VWS V14.01,2013-01-30 15:46:00,
2013-01-30 10:51:00,51.4,50.3,29.35,South,174,0.0,14.0,96,0.00,,SKC,0.77,VWS V14.01,2013-01-30 15:51:00,
2013-01-30 10:57:00,51.4,50.3,29.35,South,189,0.0,14.0,96,0.00,,SKC,0.77,VWS V14.01,2013-01-30 15:57:00,
2013-01-30 11:02:00,51.6,50.5,29.35,SW,216,3.0,4.0,96,0.00,,SKC,0.77,VWS V14.01,2013-01-30 16:02:00,
2013-01-30 11:07:00,51.6,50.5,29.35,SW,217,3.0,14.0,96,0.00,,SKC,0.77,VWS V14.01,2013-01-30 16:07:00,
2013-01-30 11:12:00,51.6,50.5,29.35,South,176,3.0,14.0,96,0.00,,SKC,0.77,VWS V14.01,2013-01-30 16:12:00,
2013-01-30 11:17:00,51.7,50.6,29.34,SSW,204,1.0,14.0,96,0.00,,SKC,0.77,VWS V14.01,2013-01-30 16:17:00,
2013-01-30 11:22:00,51.7,50.6,29.34,South,181,6.0,14.0,96,0.00,,SKC,0.77,VWS V14.01,2013-01-30 16:22:00,
2013-01-30 11:27:00,51.7,50.6,29.34,SW,221,3.0,14.0,96,0.00,,SKC,0.77,VWS V14.01,2013-01-30 16:27:00,
2013-01-30 11:32:00,51.9,50.8,29.36,SSW,208,2.0,13.0,96,0.00,,SKC,0.77,VWS V14.01,2013-01-30 16:32:00,
2013-01-30 11:37:00,51.9,50.5,29.36,SSW,205,4.0,13.0,95,0.00,,SKC,0.77,VWS V14.01,2013-01-30 16:37:00,
2013-01-30 11:42:00,51.9,50.5,29.36,SSE,154,13.0,15.0,95,0.00,,SKC,0.77,VWS V14.01,2013-01-30 16:42:00,
2013-01-30 11:47:00,51.9,50.2,29.33,SSW,198,3.0,20.0,94,0.00,,SKC,0.77,VWS V14.01,2013-01-30 16:47:00,
2013-01-30 11:52:00,51.9,50.2,29.33,SSE,158,7.0,20.0,94,0.00,,SKC,0.77,VWS V14.01,2013-01-30 16:52:00,
2013-01-30 11:57:00,51.9,49.9,29.33,SW,224,8.0,20.0,93,0.00,,SKC,0.77,VWS V14.01,2013-01-30 16:57:00,
2013-01-30 12:02:00,52.0,50.0,29.33,SW,231,13.0,15.0,93,0.00,,SKC,0.77,VWS V14.01,2013-01-30 17:02:00,
2013-01-30 12:07:00,52.2,50.0,29.33,SSW,213,2.0,15.0,92,0.00,,SKC,0.77,VWS V14.01,2013-01-30 17:07:00,
2013-01-30 12:13:00,52.2,49.7,29.33,SSW,210,9.0,15.0,91,0.00,,SKC,0.77,VWS V14.01,2013-01-30 17:13:00,
2013-01-30 12:18:00,52.3,49.5,29.32,South,183,7.0,15.0,90,0.00,,SKC,0.77,VWS V14.01,2013-01-30 17:18:00,
2013-01-30 12:23:00,52.3,49.2,29.32,South,191,6.0,15.0,89,0.00,,SKC,0.77,VWS V14.01,2013-01-30 17:23:00,
2013-01-30 12:28:00,52.5,49.4,29.32,SSW,195,2.0,15.0,89,0.00,,SKC,0.77,VWS V14.01,2013-01-30 17:28:00,
2013-01-30 12:33:00,52.5,49.0,29.32,SW,218,3.0,17.0,88,0.00,,SKC,0.77,VWS V14.01,2013-01-30 17:33:00,
2013-01-30 12:38:00,52.6,48.8,29.32,SSW,193,3.0,19.0,87,0.00,,SKC,0.77,VWS V14.01,2013-01-30 17:38:00,
2013-01-30 12:43:00,52.8,49.0,29.32,SW,233,7.0,19.0,87,0.00,,SKC,0.77,VWS V14.01,2013-01-30 17:43:00,
2013-01-30 12:48:00,52.8,48.7,29.33,SSW,209,4.0,19.0,86,0.00,,SKC,0.77,VWS V14.01,2013-01-30 17:48:00,
2013-01-30 12:53:00,52.9,48.8,29.33,SSW,212,9.0,19.0,86,0.00,,SKC,0.77,VWS V14.01,2013-01-30 17:53:00,
2013-01-30 12:58:00,52.9,48.5,29.33,WSW,245,0.0,19.0,85,0.00,,SKC,0.77,VWS V14.01,2013-01-30 17:58:00,
2013-01-30 13:03:00,53.3,48.6,29.31,SE,143,5.0,9.0,84,0.00,,SKC,0.77,VWS V14.01,2013-01-30 18:03:00,
2013-01-30 13:08:00,53.5,48.5,29.31,SSW,203,4.0,16.0,83,0.00,,SKC,0.77,VWS V14.01,2013-01-30 18:08:00,
2013-01-30 13:13:00,53.5,48.2,29.31,SSW,195,7.0,16.0,82,0.00,,SKC,0.77,VWS V14.01,2013-01-30 18:13:00,
2013-01-30 13:18:00,53.6,48.2,29.33,WSW,250,4.0,16.0,82,0.00,,SKC,0.77,VWS V14.01,2013-01-30 18:18:00,
2013-01-30 13:24:00,53.6,48.2,29.33,SSW,192,4.0,16.0,82,0.00,,SKC,0.77,VWS V14.01,2013-01-30 18:24:00,
2013-01-30 13:29:00,53.6,47.9,29.33,SW,214,3.0,16.0,81,0.00,,SKC,0.77,VWS V14.01,2013-01-30 18:29:00,
2013-01-30 13:34:00,53.8,47.8,29.30,SSW,208,5.0,15.0,80,0.00,,SKC,0.77,VWS V14.01,2013-01-30 18:34:00,
2013-01-30 13:39:00,54.1,47.7,29.30,SSW,209,5.0,15.0,79,0.00,,SKC,0.77,VWS V14.01,2013-01-30 18:39:00,
2013-01-30 13:44:00,54.4,47.7,29.30,South,169,0.0,17.0,78,0.00,,SKC,0.77,VWS V14.01,2013-01-30 18:44:00,
2013-01-30 13:49:00,54.5,47.5,29.29,SW,222,2.0,17.0,77,0.00,,SKC,0.77,VWS V14.01,2013-01-30 18:49:00,
2013-01-30 13:54:00,54.5,47.8,29.29,SSW,200,6.0,17.0,78,0.00,,SKC,0.77,VWS V14.01,2013-01-30 18:54:00,
2013-01-30 13:59:00,54.4,48.0,29.29,SE,143,9.0,17.0,79,0.00,,SKC,0.77,VWS V14.01,2013-01-30 18:59:00,
2013-01-30 14:04:00,54.1,48.1,29.28,South,185,3.0,12.0,80,0.00,,SKC,0.77,VWS V14.01,2013-01-30 19:04:00,
2013-01-30 14:09:00,54.1,48.4,29.28,South,187,0.0,12.0,81,0.00,,SKC,0.77,VWS V14.01,2013-01-30 19:09:00,
2013-01-30 14:14:00,54.1,48.1,29.28,SW,219,11.0,14.0,80,0.00,,SKC,0.77,VWS V14.01,2013-01-30 19:14:00,
2013-01-30 14:19:00,54.2,48.2,29.27,South,180,5.0,14.0,80,0.00,,SKC,0.77,VWS V14.01,2013-01-30 19:19:00,
2013-01-30 14:25:00,54.4,48.4,29.27,SSW,196,14.0,15.0,80,0.00,,SKC,0.77,VWS V14.01,2013-01-30 19:25:00,
2013-01-30 14:30:00,54.4,48.4,29.25,South,191,4.0,15.0,80,0.00,,SKC,0.77,VWS V14.01,2013-01-30 19:30:00,
2013-01-30 14:35:00,54.4,48.4,29.25,SW,217,4.0,18.0,80,0.00,,SKC,0.77,VWS V14.01,2013-01-30 19:35:00,
2013-01-30 14:40:00,54.1,48.1,29.25,SSW,210,4.0,18.0,80,0.00,,SKC,0.77,VWS V14.01,2013-01-30 19:40:00,
2013-01-30 14:45:00,53.9,47.9,29.26,SW,224,12.0,18.0,80,0.00,,SKC,0.77,VWS V14.01,2013-01-30 19:45:00,
2013-01-30 14:50:00,53.9,47.9,29.26,SW,215,12.0,18.0,80,0.00,,SKC,0.77,VWS V14.01,2013-01-30 19:50:00,
2013-01-30 14:55:00,53.8,48.1,29.26,SW,229,8.0,18.0,81,0.00,,SKC,0.77,VWS V14.01,2013-01-30 19:55:00,
2013-01-30 15:00:00,53.5,48.2,29.26,SSW,195,7.0,18.0,82,0.00,,SKC,0.77,VWS V14.01,2013-01-30 20:00:00,
2013-01-30 15:05:00,53.3,48.0,29.26,SSW,206,4.0,14.0,82,0.00,,SKC,0.77,VWS V14.01,2013-01-30 20:05:00,
2013-01-30 15:10:00,53.3,48.0,29.26,SSW,193,9.0,15.0,82,0.00,,SKC,0.77,VWS V14.01,2013-01-30 20:10:00,
2013-01-30 15:15:00,50.7,43.1,29.31,West,278,9.0,30.0,75,0.01,,SKC,0.78,VWS V14.01,2013-01-30 20:15:00,
2013-01-30 15:20:00,47.6,40.8,29.31,West,267,3.0,30.0,77,0.04,,SKC,0.81,VWS V14.01,2013-01-30 20:20:00,
2013-01-30 15:25:00,45.7,40.2,29.31,West,263,9.0,30.0,81,0.06,,SKC,0.83,VWS V14.01,2013-01-30 20:25:00,
2013-01-30 15:30:00,44.3,39.5,29.31,West,271,10.0,30.0,83,0.07,,SKC,0.84,VWS V14.01,2013-01-30 20:30:00,
2013-01-30 15:35:00,43.5,39.0,29.31,WSW,248,16.0,26.0,84,0.08,,SKC,0.85,VWS V14.01,2013-01-30 20:35:00,
2013-01-30 15:40:00,42.8,38.3,29.31,WSW,238,7.0,26.0,84,0.08,,SKC,0.85,VWS V14.01,2013-01-30 20:40:00,
2013-01-30 15:45:00,42.5,38.3,29.33,SW,225,0.0,26.0,85,0.08,,SKC,0.85,VWS V14.01,2013-01-30 20:45:00,
2013-01-30 15:51:00,42.3,38.4,29.33,WNW,282,6.0,26.0,86,0.08,,SKC,0.85,VWS V14.01,2013-01-30 20:51:00,
2013-01-30 15:56:00,42.2,38.3,29.33,WSW,242,10.0,26.0,86,0.09,,SKC,0.86,VWS V14.01,2013-01-30 20:56:00,
2013-01-30 16:01:00,42.1,38.5,29.33,NW,313,2.0,4.0,87,0.09,,SKC,0.86,VWS V14.01,2013-01-30 21:01:00,
2013-01-30 16:06:00,41.9,38.3,29.33,SSW,197,6.0,15.0,87,0.09,,SKC,0.86,VWS V14.01,2013-01-30 21:06:00,
2013-01-30 16:11:00,41.5,37.6,29.33,West,274,23.0,32.0,86,0.09,,SKC,0.86,VWS V14.01,2013-01-30 21:11:00,
2013-01-30 16:16:00,41.1,36.6,29.34,West,262,7.0,32.0,84,0.09,,SKC,0.86,VWS V14.01,2013-01-30 21:16:00,
2013-01-30 16:21:00,40.6,35.8,29.34,SSW,206,1.0,32.0,83,0.09,,SKC,0.86,VWS V14.01,2013-01-30 21:21:00,
2013-01-30 16:26:00,40.3,35.2,29.34,WSW,255,13.0,32.0,82,0.09,,SKC,0.86,VWS V14.01,2013-01-30 21:26:00,
2013-01-30 16:31:00,39.9,34.9,29.35,SSW,193,3.0,12.0,82,0.02,,SKC,0.86,VWS V14.01,2013-01-30 21:31:00,
2013-01-30 16:36:00,39.6,34.6,29.35,WSW,256,15.0,21.0,82,0.02,,SKC,0.86,VWS V14.01,2013-01-30 21:36:00,
2013-01-30 16:41:00,39.5,34.5,29.35,West,270,5.0,25.0,82,0.02,,SKC,0.86,VWS V14.01,2013-01-30 21:41:00,
2013-01-30 16:46:00,39.2,34.2,29.35,WSW,246,14.0,25.0,82,0.02,,SKC,0.86,VWS V14.01,2013-01-30 21:46:00,
2013-01-30 16:51:00,39.1,34.1,29.35,WSW,258,10.0,29.0,82,0.02,,SKC,0.86,VWS V14.01,2013-01-30 21:51:00,
2013-01-30 16:56:00,39.1,34.1,29.35,West,276,6.0,29.0,82,0.02,,SKC,0.86,VWS V14.01,2013-01-30 21:56:00,
2013-01-30 17:02:00,39.1,34.4,29.36,West,281,6.0,10.0,83,0.00,,SKC,0.86,VWS V14.01,2013-01-30 22:02:00,
2013-01-30 17:07:00,38.8,34.1,29.36,WSW,254,11.0,20.0,83,0.00,,SKC,0.86,VWS V14.01,2013-01-30 22:07:00,
2013-01-30 17:12:00,38.6,34.2,29.36,West,260,11.0,20.0,84,0.00,,SKC,0.86,VWS V14.01,2013-01-30 22:12:00,
2013-01-30 17:17:00,38.3,34.2,29.37,WSW,252,9.0,20.0,85,0.01,,SKC,0.87,VWS V14.01,2013-01-30 22:17:00,
2013-01-30 17:22:00,38.2,34.1,29.37,WSW,248,16.0,20.0,85,0.01,,SKC,0.87,VWS V14.01,2013-01-30 22:22:00,
2013-01-30 17:27:00,37.9,33.8,29.37,West,259,6.0,20.0,85,0.01,,SKC,0.87,VWS V14.01,2013-01-30 22:27:00,
2013-01-30 17:32:00,37.6,33.5,29.38,West,259,9.0,18.0,85,0.01,,SKC,0.87,VWS V14.01,2013-01-30 22:32:00,
2013-01-30 17:37:00,37.6,33.5,29.38,SW,215,7.0,18.0,85,0.01,,SKC,0.87,VWS V14.01,2013-01-30 22:37:00,
2013-01-30 17:42:00,37.5,33.4,29.38,SW,221,2.0,23.0,85,0.01,,SKC,0.87,VWS V14.01,2013-01-30 22:42:00,
2013-01-30 17:48:00,37.5,33.1,29.39,West,272,8.0,26.0,84,0.01,,SKC,0.87,VWS V14.01,2013-01-30 22:48:00,
2013-01-30 17:53:00,37.3,32.9,29.39,WSW,245,10.0,26.0,84,0.01,,SKC,0.87,VWS V14.01,2013-01-30 22:53:00,
2013-01-30 17:58:00,37.2,32.8,29.39,West,275,17.0,28.0,84,0.01,,SKC,0.87,VWS V14.01,2013-01-30 22:58:00,
2013-01-30 18:03:00,36.9,31.6,29.39,SSW,208,14.0,19.0,81,0.01,,SKC,0.87,VWS V14.01,2013-01-30 23:03:00,
2013-01-30 18:08:00,36.9,31.3,29.39,WSW,238,14.0,33.0,80,0.01,,SKC,0.87,VWS V14.01,2013-01-30 23:08:00,
2013-01-30 18:13:00,36.8,30.9,29.39,South,185,21.0,33.0,79,0.01,,SKC,0.87,VWS V14.01,2013-01-30 23:13:00,
2013-01-30 18:18:00,36.6,31.0,29.40,SW,236,17.0,33.0,80,0.01,,SKC,0.87,VWS V14.01,2013-01-30 23:18:00,
2013-01-30 18:23:00,36.5,30.9,29.40,WSW,253,7.0,33.0,80,0.01,,SKC,0.87,VWS V14.01,2013-01-30 23:23:00,
2013-01-30 18:28:00,36.5,31.2,29.40,WNW,294,11.0,33.0,81,0.01,,SKC,0.87,VWS V14.01,2013-01-30 23:28:00,
2013-01-30 18:33:00,36.5,31.2,29.41,SW,221,4.0,20.0,81,0.00,,SKC,0.87,VWS V14.01,2013-01-30 23:33:00,
2013-01-30 18:38:00,36.5,30.9,29.41,West,281,10.0,26.0,80,0.00,,SKC,0.87,VWS V14.01,2013-01-30 23:38:00,
2013-01-30 18:44:00,36.3,30.4,29.41,West,270,19.0,27.0,79,0.00,,SKC,0.87,VWS V14.01,2013-01-30 23:44:00,
2013-01-30 18:49:00,36.2,30.3,29.42,West,273,7.0,27.0,79,0.00,,SKC,0.87,VWS V14.01,2013-01-30 23:49:00,
2013-01-30 18:54:00,35.6,29.7,29.42,ESE,111,20.0,28.0,79,0.00,,SKC,0.87,VWS V14.01,2013-01-30 23:54:00,
2013-01-30 18:59:00,35.2,29.7,29.42,West,260,14.0,31.0,80,0.00,,SKC,0.87,VWS V14.01,2013-01-30 23:59:00,
2013-01-30 19:04:00,35.0,29.8,29.43,West,275,12.0,18.0,81,0.00,,SKC,0.87,VWS V14.01,2013-01-31 00:04:00,
2013-01-30 19:09:00,34.4,28.9,29.43,SSW,204,13.0,36.0,80,0.00,,SKC,0.87,VWS V14.01,2013-01-31 00:09:00,
2013-01-30 19:14:00,34.0,28.5,29.43,SW,236,12.0,36.0,80,0.00,,SKC,0.87,VWS V14.01,2013-01-31 00:14:00,
2013-01-30 19:19:00,33.4,28.2,29.45,SW,232,7.0,36.0,81,0.00,,SKC,0.87,VWS V14.01,2013-01-31 00:19:00,
2013-01-30 19:24:00,33.2,28.3,29.45,West,271,11.0,36.0,82,0.00,,SKC,0.87,VWS V14.01,2013-01-31 00:24:00,
2013-01-30 19:29:00,33.1,28.2,29.45,West,267,7.0,36.0,82,0.00,,SKC,0.87,VWS V14.01,2013-01-31 00:29:00,
2013-01-30 19:34:00,32.8,27.9,29.45,West,264,17.0,25.0,82,0.00,,SKC,0.87,VWS V14.01,2013-01-31 00:34:00,
2013-01-30 19:40:00,32.8,27.9,29.45,West,275,6.0,26.0,82,0.00,,SKC,0.87,VWS V14.01,2013-01-31 00:40:00,
2013-01-30 19:45:00,32.7,27.5,29.45,WSW,248,7.0,26.0,81,0.00,,SKC,0.87,VWS V14.01,2013-01-31 00:45:00,
2013-01-30 19:50:00,32.7,27.5,29.45,West,262,11.0,33.0,81,0.00,,SKC,0.87,VWS V14.01,2013-01-31 00:50:00,
2013-01-30 19:55:00,32.5,27.3,29.45,WSW,246,6.0,33.0,81,0.00,,SKC,0.87,VWS V14.01,2013-01-31 00:55:00,
2013-01-30 20:00:00,32.5,27.3,29.47,WNW,288,7.0,33.0,81,0.00,,SKC,0.87,VWS V14.01,2013-01-31 01:00:00,
2013-01-30 20:05:00,32.5,27.3,29.47,SSW,193,16.0,24.0,81,0.00,,SKC,0.87,VWS V14.01,2013-01-31 01:05:00,
2013-01-30 20:10:00,32.5,27.3,29.47,WSW,256,21.0,24.0,81,0.00,,SKC,0.87,VWS V14.01,2013-01-31 01:10:00,
2013-01-30 20:15:00,32.4,27.5,29.49,SW,217,14.0,24.0,82,0.00,,SKC,0.87,VWS V14.01,2013-01-31 01:15:00,
2013-01-30 20:20:00,31.9,27.3,29.49,WNW,287,13.0,24.0,83,0.00,,SKC,0.87,VWS V14.01,2013-01-31 01:20:00,
2013-01-30 20:25:00,31.6,27.3,29.49,SW,232,10.0,24.0,84,0.00,,SKC,0.87,VWS V14.01,2013-01-31 01:25:00,
2013-01-30 20:30:00,31.3,27.0,29.49,WNW,285,6.0,31.0,84,0.00,,SKC,0.87,VWS V14.01,2013-01-31 01:30:00,
2013-01-30 20:35:00,31.3,26.8,29.49,WSW,250,17.0,30.0,83,0.00,,SKC,0.87,VWS V14.01,2013-01-31 01:35:00,
2013-01-30 20:41:00,31.2,26.6,29.49,SSW,213,13.0,30.0,83,0.00,,SKC,0.87,VWS V14.01,2013-01-31 01:41:00,
2013-01-30 20:46:00,31.0,26.2,29.49,West,263,7.0,30.0,82,0.00,,SKC,0.87,VWS V14.01,2013-01-31 01:46:00,
2013-01-30 20:51:00,31.0,26.5,29.49,WSW,246,6.0,30.0,83,0.00,,SKC,0.87,VWS V14.01,2013-01-31 01:51:00,
2013-01-30 20:56:00,31.0,26.5,29.49,West,265,6.0,30.0,83,0.00,,SKC,0.87,VWS V14.01,2013-01-31 01:56:00,
2013-01-30 21:01:00,31.0,26.5,29.50,WSW,238,12.0,12.0,83,0.00,,SKC,0.87,VWS V14.01,2013-01-31 02:01:00,
2013-01-30 21:06:00,30.9,26.4,29.50,West,260,5.0,26.0,83,0.00,,SKC,0.87,VWS V14.01,2013-01-31 02:06:00,
2013-01-30 21:11:00,30.7,25.9,29.50,West,265,7.0,28.0,82,0.00,,SKC,0.87,VWS V14.01,2013-01-31 02:11:00,
2013-01-30 21:16:00,30.7,25.9,29.51,West,280,4.0,28.0,82,0.00,,SKC,0.87,VWS V14.01,2013-01-31 02:16:00,
2013-01-30 21:21:00,30.7,26.2,29.51,West,269,4.0,28.0,83,0.00,,SKC,0.87,VWS V14.01,2013-01-31 02:21:00,
2013-01-30 21:26:00,30.7,26.2,29.51,SW,232,17.0,28.0,83,0.00,,SKC,0.87,VWS V14.01,2013-01-31 02:26:00,
2013-01-30 21:31:00,30.3,25.8,29.52,SW,214,19.0,19.0,83,0.00,,SKC,0.87,VWS V14.01,2013-01-31 02:31:00,
2013-01-30 21:36:00,30.1,25.6,29.52,West,281,13.0,30.0,83,0.00,,SKC,0.87,VWS V14.01,2013-01-31 02:36:00,
2013-01-30 21:41:00,30.0,25.5,29.52,West,280,4.0,30.0,83,0.00,,SKC,0.87,VWS V14.01,2013-01-31 02:41:00,
2013-01-30 21:46:00,30.0,25.5,29.53,West,273,3.0,30.0,83,0.00,,SKC,0.87,VWS V14.01,2013-01-31 02:46:00,
2013-01-30 21:51:00,29.8,25.0,29.53,WSW,254,11.0,33.0,82,0.00,,SKC,0.87,VWS V14.01,2013-01-31 02:51:00,
2013-01-30 21:56:00,29.8,25.0,29.53,West,278,4.0,33.0,82,0.00,,SKC,0.87,VWS V14.01,2013-01-31 02:56:00,
2013-01-30 22:01:00,29.7,25.2,29.55,WSW,248,7.0,23.0,83,0.00,,SKC,0.87,VWS V14.01,2013-01-31 03:01:00,
2013-01-30 22:06:00,29.4,24.0,29.55,SW,236,16.0,29.0,80,0.00,,SKC,0.87,VWS V14.01,2013-01-31 03:06:00,
2013-01-30 22:12:00,29.3,23.9,29.55,SW,227,12.0,29.0,80,0.00,,SKC,0.87,VWS V14.01,2013-01-31 03:12:00,
2013-01-30 22:17:00,29.3,23.9,29.56,WNW,285,8.0,29.0,80,0.00,,SKC,0.87,VWS V14.01,2013-01-31 03:17:00,
2013-01-30 22:22:00,29.1,23.7,29.56,WNW,288,10.0,29.0,80,0.00,,SKC,0.87,VWS V14.01,2013-01-31 03:22:00,
2013-01-30 22:27:00,29.0,23.6,29.56,WNW,295,5.0,29.0,80,0.00,,SKC,0.87,VWS V14.01,2013-01-31 03:27:00,
2013-01-30 22:32:00,28.8,23.1,29.58,West,262,9.0,18.0,79,0.00,,SKC,0.87,VWS V14.01,2013-01-31 03:32:00,
2013-01-30 22:37:00,28.8,23.1,29.58,SW,232,20.0,20.0,79,0.00,,SKC,0.87,VWS V14.01,2013-01-31 03:37:00,
2013-01-30 22:42:00,28.7,23.3,29.58,WSW,257,9.0,30.0,80,0.00,,SKC,0.87,VWS V14.01,2013-01-31 03:42:00,
2013-01-30 22:47:00,28.5,23.1,29.59,WNW,297,13.0,30.0,80,0.00,,SKC,0.87,VWS V14.01,2013-01-31 03:47:00,
2013-01-30 22:52:00,28.4,22.7,29.59,West,262,6.0,33.0,79,0.00,,SKC,0.87,VWS V14.01,2013-01-31 03:52:00,
2013-01-30 22:57:00,28.4,22.7,29.59,WNW,300,11.0,33.0,79,0.00,,SKC,0.87,VWS V14.01,2013-01-31 03:57:00,
2013-01-30 23:02:00,28.2,22.5,29.60,WSW,258,7.0,19.0,79,0.00,,SKC,0.87,VWS V14.01,2013-01-31 04:02:00,
2013-01-30 23:07:00,28.2,22.5,29.60,WNW,292,14.0,19.0,79,0.00,,SKC,0.87,VWS V14.01,2013-01-31 04:07:00,
2013-01-30 23:12:00,28.2,22.2,29.60,West,264,24.0,31.0,78,0.00,,SKC,0.87,VWS V14.01,2013-01-31 04:12:00,
2013-01-30 23:18:00,28.1,21.8,29.61,West,261,7.0,31.0,77,0.00,,SKC,0.87,VWS V14.01,2013-01-31 04:18:00,
2013-01-30 23:23:00,27.9,21.6,29.61,WSW,255,21.0,31.0,77,0.00,,SKC,0.87,VWS V14.01,2013-01-31 04:23:00,
2013-01-30 23:28:00,27.9,21.3,29.61,SW,226,7.0,31.0,76,0.00,,SKC,0.87,VWS V14.01,2013-01-31 04:28:00,
2013-01-30 23:33:00,27.9,21.6,29.61,WNW,288,16.0,21.0,77,0.00,,SKC,0.87,VWS V14.01,2013-01-31 04:33:00,
2013-01-30 23:38:00,27.8,21.5,29.61,WNW,282,17.0,31.0,77,0.00,,SKC,0.87,VWS V14.01,2013-01-31 04:38:00,
2013-01-30 23:43:00,27.6,21.4,29.61,West,264,17.0,31.0,77,0.00,,SKC,0.87,VWS V14.01,2013-01-31 04:43:00,
2013-01-30 23:48:00,27.5,20.9,29.63,NW,325,13.0,31.0,76,0.00,,SKC,0.87,VWS V14.01,2013-01-31 04:48:00,
2013-01-30 23:53:00,27.3,20.8,29.63,WSW,252,22.0,31.0,76,0.00,,SKC,0.87,VWS V14.01,2013-01-31 04:53:00,
2013-01-30 23:58:00,27.3,21.1,29.63,WNW,284,6.0,31.0,77,0.00,,SKC,0.87,VWS V14.01,2013-01-31 04:58:00,